createdAt,value
2022-08-01T00:00:12.517Z,65.11
2022-08-01T00:02:41.895Z,65.27
2022-08-01T00:05:11.805Z,65.58
2022-08-01T00:07:40.770Z,65.62
2022-08-01T00:10:11.535Z,67.12
2022-08-01T00:12:40.617Z,68.00
2022-08-01T00:15:12.653Z,67.94
2022-08-01T00:17:41.475Z,69.61
2022-08-01T00:20:12.937Z,69.88
2022-08-01T00:22:41.575Z,70.04
2022-08-01T00:25:10.614Z,69.83
2022-08-01T00:27:38.866Z,68.86
2022-08-01T00:30:10.756Z,67.63
2022-08-01T00:32:42.528Z,67.69
2022-08-01T00:35:11.224Z,67.50
2022-08-01T00:37:39.496Z,67.63
2022-08-01T00:40:11.187Z,67.72
2022-08-01T00:42:43.434Z,67.72
2022-08-01T00:45:12.674Z,67.81
2022-08-01T00:47:42.322Z,68.94
2022-08-01T00:50:12.142Z,68.84
2022-08-01T00:52:42.162Z,69.04
2022-08-01T00:55:15.053Z,69.53
2022-08-01T00:58:03.302Z,69.61
2022-08-01T01:00:34.846Z,69.20
2022-08-01T01:03:37.915Z,69.29
2022-08-01T01:06:23.655Z,68.31
2022-08-01T01:09:00.651Z,70.31
2022-08-01T01:11:38.187Z,71.15
2022-08-01T01:14:12.243Z,71.65
2022-08-01T01:16:43.456Z,71.48
2022-08-01T01:19:18.806Z,71.40
2022-08-01T01:22:03.412Z,70.91
2022-08-01T01:24:40.234Z,69.62
2022-08-01T01:27:19.921Z,70.26
2022-08-01T01:29:59.773Z,71.84
2022-08-01T01:32:35.201Z,71.73
2022-08-01T01:35:07.714Z,72.70
2022-08-01T01:37:39.919Z,71.88
2022-08-01T01:40:11.897Z,72.04
2022-08-01T01:42:42.266Z,72.70
2022-08-01T01:45:12.822Z,72.59
2022-08-01T01:47:42.310Z,73.15
2022-08-01T01:50:14.165Z,73.18
2022-08-01T01:52:44.574Z,72.62
2022-08-01T01:55:14.063Z,73.03
2022-08-01T01:57:45.847Z,73.31
2022-08-01T02:00:17.783Z,72.83
2022-08-01T02:02:47.927Z,72.31
2022-08-01T02:05:17.418Z,72.23
2022-08-01T02:07:48.481Z,72.32
2022-08-01T02:10:20.295Z,73.90
2022-08-01T02:12:57.667Z,73.21
2022-08-01T02:15:30.370Z,72.91
2022-08-01T02:17:59.158Z,72.69
2022-08-01T02:20:31.291Z,72.76
2022-08-01T02:23:08.677Z,73.16
2022-08-01T02:26:10.872Z,73.43
2022-08-01T02:28:35.106Z,72.69
2022-08-01T02:31:12.643Z,73.50
2022-08-01T02:33:44.188Z,73.44
2022-08-01T02:36:32.258Z,73.49
2022-08-01T02:39:04.771Z,73.08
2022-08-01T02:41:35.841Z,72.89
2022-08-01T02:44:08.701Z,74.02
2022-08-01T02:46:41.805Z,75.38
2022-08-01T02:49:13.294Z,74.38
2022-08-01T02:51:43.398Z,73.72
2022-08-01T02:54:13.601Z,74.24
2022-08-01T02:56:43.913Z,74.61
2022-08-01T02:59:16.399Z,73.79
2022-08-01T03:01:52.534Z,73.78
2022-08-01T03:04:25.681Z,73.01
2022-08-01T03:06:55.713Z,72.47
2022-08-01T03:09:25.190Z,72.76
2022-08-01T03:11:55.158Z,72.31
2022-08-01T03:14:26.138Z,72.00
2022-08-01T03:16:57.472Z,73.40
2022-08-01T03:19:28.694Z,73.82
2022-08-01T03:21:59.530Z,74.14
2022-08-01T03:24:29.532Z,74.69
2022-08-01T03:27:00.316Z,73.90
2022-08-01T03:29:31.043Z,73.29
2022-08-01T03:32:02.356Z,73.54
2022-08-01T03:34:31.075Z,73.43
2022-08-01T03:37:04.906Z,74.48
2022-08-01T03:39:40.381Z,75.14
2022-08-01T03:42:14.771Z,75.27
2022-08-01T03:44:44.160Z,74.55
2022-08-01T03:47:16.363Z,74.41
2022-08-01T03:49:46.638Z,74.61
2022-08-01T03:52:16.537Z,75.29
2022-08-01T03:54:50.048Z,75.44
2022-08-01T03:57:20.202Z,74.94
2022-08-01T04:00:10.057Z,74.97
2022-08-01T04:02:40.967Z,74.66
2022-08-01T04:05:10.162Z,75.58
2022-08-01T04:07:40.367Z,76.00
2022-08-01T04:10:09.278Z,76.48
2022-08-01T04:12:37.581Z,77.02
2022-08-01T04:15:06.903Z,78.00
2022-08-01T04:17:35.105Z,78.04
2022-08-01T04:20:05.344Z,78.41
2022-08-01T04:22:37.162Z,77.56
2022-08-01T04:25:11.702Z,77.59
2022-08-01T04:27:49.829Z,77.50
2022-08-01T04:30:23.488Z,77.63
2022-08-01T04:32:53.467Z,78.17
2022-08-01T04:36:02.428Z,77.41
2022-08-01T04:38:15.387Z,76.70
2022-08-01T04:40:44.901Z,75.60
2022-08-01T04:43:14.981Z,75.90
2022-08-01T04:45:45.875Z,76.68
2022-08-01T04:48:17.740Z,77.44
2022-08-01T04:50:48.143Z,78.52
2022-08-01T04:53:18.746Z,78.39
2022-08-01T04:55:48.220Z,78.31
2022-08-01T04:58:18.504Z,78.24
2022-08-01T05:00:47.510Z,77.27
2022-08-01T05:03:16.150Z,76.94
2022-08-01T05:05:44.447Z,76.70
2022-08-01T05:08:14.383Z,76.61
2022-08-01T05:10:42.605Z,75.89
2022-08-01T05:13:10.933Z,75.40
2022-08-01T05:15:39.285Z,74.05
2022-08-01T05:18:08.617Z,72.32
2022-08-01T05:20:37.035Z,70.37
2022-08-01T05:23:05.281Z,69.20
2022-08-01T05:25:56.395Z,69.03
2022-08-01T05:28:23.481Z,68.03
2022-08-01T05:30:51.901Z,68.42
2022-08-01T05:33:21.942Z,68.78
2022-08-01T05:35:50.177Z,69.17
2022-08-01T05:38:18.588Z,69.80
2022-08-01T05:40:48.202Z,71.23
2022-08-01T05:43:16.698Z,72.14
2022-08-01T05:45:45.709Z,71.69
2022-08-01T05:48:14.087Z,72.87
2022-08-01T05:50:42.279Z,74.05
2022-08-01T05:53:10.455Z,73.78
2022-08-01T05:55:38.627Z,74.22
2022-08-01T05:58:08.218Z,74.61
2022-08-01T06:00:41.425Z,74.51
2022-08-01T06:03:09.582Z,73.33
2022-08-01T06:05:37.787Z,74.04
2022-08-01T06:08:06.339Z,73.32
2022-08-01T06:10:34.555Z,74.83
2022-08-01T06:13:04.281Z,77.59
2022-08-01T06:15:34.798Z,79.25
2022-08-01T06:18:03.356Z,80.04
2022-08-01T06:20:31.536Z,79.03
2022-08-01T06:23:00.974Z,78.59
2022-08-01T06:25:30.955Z,77.97
2022-08-01T06:27:59.497Z,78.16
2022-08-01T06:30:28.212Z,75.67
2022-08-01T06:32:59.822Z,74.33
2022-08-01T06:35:29.626Z,73.14
2022-08-01T06:37:57.824Z,73.46
2022-08-01T06:40:26.612Z,74.62
2022-08-01T06:42:54.801Z,72.08
2022-08-01T06:45:25.990Z,71.99
2022-08-01T06:47:54.186Z,74.00
2022-08-01T06:50:23.720Z,76.79
2022-08-01T06:52:51.968Z,76.21
2022-08-01T06:55:20.954Z,75.54
2022-08-01T06:57:50.623Z,75.95
2022-08-01T07:00:23.593Z,73.09
2022-08-01T07:02:52.531Z,70.71
2022-08-01T07:05:21.403Z,71.61
2022-08-01T07:07:51.033Z,69.46
2022-08-01T07:10:19.665Z,70.98
2022-08-01T07:12:47.879Z,74.41
2022-08-01T07:15:16.805Z,76.07
2022-08-01T07:17:45.186Z,72.98
2022-08-01T07:20:16.240Z,70.62
2022-08-01T07:22:45.422Z,69.66
2022-08-01T07:25:17.811Z,69.34
2022-08-01T07:27:46.021Z,70.22
2022-08-01T07:30:14.851Z,69.66
2022-08-01T07:32:43.090Z,70.32
2022-08-01T07:35:11.910Z,69.69
2022-08-01T07:37:42.178Z,66.83
2022-08-01T07:40:20.175Z,64.29
2022-08-01T07:42:49.173Z,63.46
2022-08-01T07:45:17.691Z,63.82
2022-08-01T07:47:46.493Z,61.10
2022-08-01T07:50:14.879Z,59.82
2022-08-01T07:52:43.203Z,57.38
2022-08-01T07:55:16.503Z,57.80
2022-08-01T07:57:46.693Z,56.10
2022-08-01T08:00:15.558Z,56.25
2022-08-01T08:02:43.799Z,57.12
2022-08-01T08:05:13.751Z,56.52
2022-08-01T08:07:42.040Z,55.82
2022-08-01T08:10:11.051Z,55.27
2022-08-01T08:12:39.246Z,55.73
2022-08-01T08:15:09.986Z,56.14
2022-08-01T08:17:38.185Z,56.77
2022-08-01T08:20:08.934Z,56.81
2022-08-01T08:22:38.092Z,58.09
2022-08-01T08:25:07.882Z,57.47
2022-08-01T08:27:37.464Z,57.27
2022-08-01T08:30:09.686Z,57.36
2022-08-01T08:32:38.310Z,55.42
2022-08-01T08:35:08.310Z,56.21
2022-08-01T08:37:47.886Z,55.28
2022-08-01T08:40:18.163Z,55.15
2022-08-01T08:42:48.071Z,54.71
2022-08-01T08:45:17.837Z,54.33
2022-08-01T08:47:48.261Z,54.52
2022-08-01T08:50:17.074Z,53.34
2022-08-01T08:52:46.884Z,53.61
2022-08-01T08:55:16.712Z,52.73
2022-08-01T08:57:46.279Z,51.05
2022-08-01T09:00:17.461Z,51.54
2022-08-01T09:02:47.778Z,49.14
2022-08-01T09:05:19.460Z,49.23
2022-08-01T09:07:48.048Z,49.51
2022-08-01T09:10:16.328Z,50.93
2022-08-01T09:13:06.344Z,50.00
2022-08-01T09:15:43.480Z,49.18
2022-08-01T09:18:28.045Z,48.96
2022-08-01T09:21:15.480Z,48.00
2022-08-01T09:23:53.995Z,48.46
2022-08-01T09:26:30.114Z,48.45
2022-08-01T09:29:00.666Z,49.68
2022-08-01T09:31:38.118Z,50.09
2022-08-01T09:34:09.650Z,50.21
2022-08-01T09:36:54.218Z,48.90
2022-08-01T09:39:27.260Z,46.80
2022-08-01T09:41:56.615Z,47.41
2022-08-01T09:44:42.185Z,47.22
2022-08-01T09:47:15.525Z,46.56
2022-08-01T09:49:50.473Z,43.99
2022-08-01T09:52:25.697Z,43.44
2022-08-01T09:54:56.924Z,43.98
2022-08-01T09:57:25.772Z,43.65
2022-08-01T09:59:59.705Z,44.62
2022-08-01T10:02:34.291Z,43.45
2022-08-01T10:05:08.393Z,41.27
2022-08-01T10:07:43.532Z,41.97
2022-08-01T10:10:15.379Z,40.45
2022-08-01T10:12:45.679Z,42.05
2022-08-01T10:15:18.027Z,41.15
2022-08-01T10:17:57.299Z,41.84
2022-08-01T10:20:30.248Z,40.58
2022-08-01T10:23:05.900Z,39.94
2022-08-01T10:25:42.737Z,40.45
2022-08-01T10:28:23.639Z,41.06
2022-08-01T10:30:53.328Z,41.38
2022-08-01T10:33:52.751Z,41.04
2022-08-01T10:36:14.988Z,40.55
2022-08-01T10:38:45.536Z,39.96
2022-08-01T10:41:16.453Z,40.68
2022-08-01T10:43:47.034Z,41.42
2022-08-01T10:46:15.816Z,42.22
2022-08-01T10:48:54.501Z,42.36
2022-08-01T10:51:51.178Z,39.95
2022-08-01T10:54:14.588Z,41.07
2022-08-01T10:56:46.489Z,39.53
2022-08-01T10:59:50.385Z,39.79
2022-08-01T11:02:12.475Z,41.31
2022-08-01T11:04:57.206Z,37.72
2022-08-01T11:07:38.173Z,37.63
2022-08-01T11:10:14.576Z,38.80
2022-08-01T11:12:45.480Z,39.65
2022-08-01T11:15:30.859Z,37.96
2022-08-01T11:18:04.807Z,38.21
2022-08-01T11:20:41.909Z,39.31
2022-08-01T11:23:20.388Z,39.69
2022-08-01T11:26:29.242Z,40.39
2022-08-01T11:29:23.462Z,39.93
2022-08-01T11:31:53.198Z,39.89
2022-08-01T11:34:21.928Z,40.61
2022-08-01T11:36:59.872Z,40.00
2022-08-01T11:39:29.528Z,39.67
2022-08-01T11:42:20.802Z,39.38
2022-08-01T11:44:53.085Z,39.74
2022-08-01T11:47:49.878Z,38.60
2022-08-01T11:50:36.075Z,35.97
2022-08-01T11:53:07.196Z,36.06
2022-08-01T11:55:37.021Z,37.20
2022-08-01T11:58:07.671Z,35.07
2022-08-01T12:00:54.325Z,35.76
2022-08-01T12:03:33.558Z,34.70
2022-08-01T12:06:02.511Z,35.34
2022-08-01T12:08:34.036Z,35.03
2022-08-01T12:11:03.491Z,35.32
2022-08-01T12:13:44.405Z,32.72
2022-08-01T12:16:13.544Z,34.30
2022-08-01T12:18:44.705Z,34.56
2022-08-01T12:21:12.915Z,35.53
2022-08-01T12:23:41.161Z,34.12
2022-08-01T12:26:28.531Z,33.62
2022-08-01T12:28:58.366Z,30.77
2022-08-01T12:31:34.055Z,31.03
2022-08-01T12:34:30.689Z,31.81
2022-08-01T12:37:03.611Z,32.08
2022-08-01T12:39:34.501Z,30.72
2022-08-01T12:42:03.216Z,30.30
2022-08-01T12:44:33.053Z,30.35
2022-08-01T12:47:02.213Z,30.15
2022-08-01T12:49:32.404Z,29.66
2022-08-01T12:52:00.950Z,29.72
2022-08-01T12:54:29.632Z,30.88
2022-08-01T12:56:58.489Z,31.90
2022-08-01T12:59:28.907Z,31.99
2022-08-01T13:01:59.549Z,31.34
2022-08-01T13:04:27.930Z,30.26
2022-08-01T13:06:58.150Z,30.50
2022-08-01T13:09:27.559Z,29.91
2022-08-01T13:12:07.073Z,29.00
2022-08-01T13:14:35.451Z,28.24
2022-08-01T13:17:10.035Z,29.04
2022-08-01T13:19:48.352Z,28.62
2022-08-01T13:22:18.027Z,29.20
2022-08-01T13:24:46.395Z,29.21
2022-08-01T13:27:24.423Z,29.96
2022-08-01T13:29:54.189Z,30.31
2022-08-01T13:32:28.303Z,29.96
2022-08-01T13:35:04.161Z,29.80
2022-08-01T13:37:33.775Z,28.36
2022-08-01T13:40:02.048Z,28.32
2022-08-01T13:42:31.445Z,26.85
2022-08-01T13:44:59.755Z,27.41
2022-08-01T13:47:31.019Z,29.13
2022-08-01T13:50:03.420Z,28.87
2022-08-01T13:52:33.531Z,29.79
2022-08-01T13:55:02.469Z,30.09
2022-08-01T13:57:36.278Z,28.83
2022-08-01T14:00:06.840Z,27.49
2022-08-01T14:02:35.385Z,28.40
2022-08-01T14:05:03.949Z,29.35
2022-08-01T14:07:33.605Z,29.36
2022-08-01T14:10:19.302Z,29.35
2022-08-01T14:12:48.467Z,29.97
2022-08-01T14:15:18.632Z,29.35
2022-08-01T14:18:06.331Z,27.82
2022-08-01T14:20:34.905Z,27.08
2022-08-01T14:23:08.539Z,26.44
2022-08-01T14:26:01.696Z,26.23
2022-08-01T14:28:28.521Z,25.93
2022-08-01T14:30:57.626Z,25.34
2022-08-01T14:33:26.114Z,25.84
2022-08-01T14:36:06.526Z,26.18
2022-08-01T14:38:46.286Z,27.68
2022-08-01T14:41:15.391Z,27.65
2022-08-01T14:43:43.742Z,27.92
2022-08-01T14:46:13.683Z,28.69
2022-08-01T14:48:42.794Z,27.59
2022-08-01T14:51:11.112Z,28.43
2022-08-01T14:53:39.901Z,28.91
2022-08-01T14:56:12.631Z,28.35
2022-08-01T14:58:40.824Z,29.09
2022-08-01T15:01:09.131Z,28.59
2022-08-01T15:03:37.807Z,28.72
2022-08-01T15:06:07.517Z,28.96
2022-08-01T15:08:36.035Z,29.74
2022-08-01T15:11:04.275Z,29.34
2022-08-01T15:13:34.149Z,28.15
2022-08-01T15:16:03.083Z,28.79
2022-08-01T15:18:31.290Z,28.87
2022-08-01T15:21:02.522Z,28.87
2022-08-01T15:23:30.728Z,28.38
2022-08-01T15:25:58.886Z,29.49
2022-08-01T15:28:27.178Z,28.71
2022-08-01T15:30:56.707Z,28.10
2022-08-01T15:33:25.615Z,27.74
2022-08-01T15:35:54.023Z,28.72
2022-08-01T15:38:23.003Z,29.33
2022-08-01T15:40:51.300Z,28.06
2022-08-01T15:43:19.625Z,27.77
2022-08-01T15:45:49.130Z,26.79
2022-08-01T15:48:19.340Z,27.17
2022-08-01T15:50:47.586Z,26.03
2022-08-01T15:53:15.832Z,25.17
2022-08-01T15:55:52.130Z,23.41
2022-08-01T15:58:21.291Z,22.19
2022-08-01T16:00:49.641Z,21.08
2022-08-01T16:03:19.327Z,19.60
2022-08-01T16:05:47.535Z,19.03
2022-08-01T16:08:15.858Z,19.33
2022-08-01T16:10:44.524Z,19.60
2022-08-01T16:13:13.077Z,20.83
2022-08-01T16:15:41.959Z,21.25
2022-08-01T16:18:13.170Z,20.67
2022-08-01T16:20:45.782Z,19.52
2022-08-01T16:23:15.606Z,18.75
2022-08-01T16:25:44.729Z,20.67
2022-08-01T16:28:14.471Z,22.43
2022-08-01T16:30:51.048Z,24.50
2022-08-01T16:33:45.587Z,26.69
2022-08-01T16:36:24.784Z,28.18
2022-08-01T16:38:53.156Z,28.61
2022-08-01T16:41:21.804Z,27.55
2022-08-01T16:43:53.848Z,27.35
2022-08-01T16:46:23.927Z,28.64
2022-08-01T16:48:52.346Z,30.34
2022-08-01T16:51:21.074Z,33.09
2022-08-01T16:53:50.893Z,33.71
2022-08-01T16:56:19.315Z,33.40
2022-08-01T16:58:47.515Z,34.12
2022-08-01T17:02:01.428Z,35.18
2022-08-01T17:04:03.519Z,36.82
2022-08-01T17:06:31.749Z,38.38
2022-08-01T17:09:01.162Z,39.19
2022-08-01T17:11:29.200Z,39.97
2022-08-01T17:13:57.404Z,41.04
2022-08-01T17:16:26.713Z,42.71
2022-08-01T17:18:54.909Z,43.72
2022-08-01T17:21:23.149Z,44.20
2022-08-01T17:23:51.412Z,45.07
2022-08-01T17:26:21.210Z,45.89
2022-08-01T17:28:49.474Z,45.46
2022-08-01T17:31:17.963Z,45.80
2022-08-01T17:33:48.687Z,46.47
2022-08-01T17:36:21.365Z,46.91
2022-08-01T17:38:49.653Z,47.39
2022-08-01T17:41:18.326Z,48.46
2022-08-01T17:43:48.284Z,48.11
2022-08-01T17:46:16.810Z,48.96
2022-08-01T17:48:46.847Z,49.39
2022-08-01T17:51:19.345Z,49.15
2022-08-01T17:53:56.743Z,49.75
2022-08-01T17:56:26.774Z,51.25
2022-08-01T17:58:56.733Z,52.76
2022-08-01T18:01:26.529Z,53.69
2022-08-01T18:03:55.029Z,53.34
2022-08-01T18:06:23.810Z,54.66
2022-08-01T18:08:55.426Z,55.68
2022-08-01T18:11:27.348Z,56.11
2022-08-01T18:13:59.682Z,56.79
2022-08-01T18:16:28.361Z,56.64
2022-08-01T18:18:57.871Z,57.42
2022-08-01T18:21:26.296Z,56.12
2022-08-01T18:23:54.455Z,58.22
2022-08-01T18:26:23.186Z,57.57
2022-08-01T18:28:51.626Z,56.04
2022-08-01T18:31:21.417Z,57.51
2022-08-01T18:33:50.090Z,60.09
2022-08-01T18:36:31.766Z,59.66
2022-08-01T18:39:04.562Z,60.04
2022-08-01T18:41:33.295Z,61.24
2022-08-01T18:44:05.424Z,60.73
2022-08-01T18:46:39.270Z,61.36
2022-08-01T18:49:08.936Z,62.64
2022-08-01T18:51:43.530Z,63.46
2022-08-01T18:54:13.397Z,63.21
2022-08-01T18:56:42.400Z,64.23
2022-08-01T18:59:10.792Z,63.22
2022-08-01T19:01:40.849Z,62.56
2022-08-01T19:04:09.577Z,64.08
2022-08-01T19:06:38.096Z,65.05
2022-08-01T19:09:06.707Z,65.51
2022-08-01T19:11:35.984Z,64.91
2022-08-01T19:14:04.451Z,64.81
2022-08-01T19:16:32.791Z,62.99
2022-08-01T19:19:06.934Z,63.16
2022-08-01T19:21:35.421Z,64.08
2022-08-01T19:24:22.710Z,64.31
2022-08-01T19:26:54.277Z,65.49
2022-08-01T19:29:24.366Z,65.68
2022-08-01T19:32:06.974Z,65.92
2022-08-01T19:34:41.579Z,64.68
2022-08-01T19:37:10.411Z,65.35
2022-08-01T19:39:38.751Z,66.27
2022-08-01T19:42:08.537Z,66.65
2022-08-01T19:44:38.568Z,67.26
2022-08-01T19:47:07.321Z,67.41
2022-08-01T19:49:37.367Z,67.18
2022-08-01T19:52:06.471Z,67.54
2022-08-01T19:54:37.487Z,68.00
2022-08-01T19:57:08.593Z,67.18
2022-08-01T19:59:44.431Z,67.64
2022-08-01T20:02:23.621Z,66.87
2022-08-01T20:04:54.502Z,66.44
2022-08-01T20:07:23.554Z,67.07
2022-08-01T20:09:54.412Z,66.89
2022-08-01T20:12:25.068Z,66.10
2022-08-01T20:14:54.999Z,66.33
2022-08-01T20:17:25.398Z,66.38
2022-08-01T20:19:57.090Z,66.14
2022-08-01T20:22:34.298Z,66.31
2022-08-01T20:25:03.703Z,65.65
2022-08-01T20:27:33.540Z,66.88
2022-08-01T20:30:04.771Z,66.03
2022-08-01T20:32:35.876Z,67.20
2022-08-01T20:35:14.953Z,68.22
2022-08-01T20:38:06.597Z,68.39
2022-08-01T20:40:38.195Z,69.57
2022-08-01T20:43:12.367Z,68.64
2022-08-01T20:45:41.439Z,68.62
2022-08-01T20:48:09.828Z,68.49
2022-08-01T20:51:01.060Z,68.43
2022-08-01T20:53:30.286Z,68.85
2022-08-01T20:56:05.242Z,68.55
2022-08-01T20:58:46.452Z,68.89
2022-08-01T21:01:18.959Z,68.99
2022-08-01T21:03:56.746Z,69.15
2022-08-01T21:06:37.065Z,70.17
2022-08-01T21:09:06.944Z,69.94
2022-08-01T21:11:44.319Z,71.03
2022-08-01T21:14:15.672Z,71.79
2022-08-01T21:16:51.411Z,72.25
2022-08-01T21:19:25.731Z,71.23
2022-08-01T21:22:10.104Z,72.47
2022-08-01T21:24:58.733Z,72.23
2022-08-01T21:27:32.721Z,71.90
2022-08-01T21:30:05.367Z,73.46
2022-08-01T21:32:35.167Z,73.55
2022-08-01T21:35:05.003Z,72.42
2022-08-01T21:37:37.722Z,72.54
2022-08-01T21:40:09.935Z,72.79
2022-08-01T21:42:40.827Z,72.76
2022-08-01T21:45:10.910Z,73.00
2022-08-01T21:47:39.261Z,72.97
2022-08-01T21:50:09.594Z,73.71
2022-08-01T21:52:46.735Z,73.85
2022-08-01T21:55:35.599Z,73.91
2022-08-01T21:58:19.307Z,74.59
2022-08-01T22:00:54.316Z,75.43
2022-08-01T22:03:26.643Z,75.01
2022-08-01T22:05:55.915Z,75.00
2022-08-01T22:08:33.435Z,75.94
2022-08-01T22:11:05.902Z,75.64
2022-08-01T22:13:35.430Z,76.31
2022-08-01T22:16:05.402Z,77.27
2022-08-01T22:18:35.296Z,77.18
2022-08-01T22:21:04.922Z,77.12
2022-08-01T22:23:37.029Z,77.58
2022-08-01T22:26:08.634Z,77.84
2022-08-01T22:28:38.309Z,77.36
2022-08-01T22:31:08.050Z,76.79
2022-08-01T22:33:37.650Z,77.12
2022-08-01T22:36:06.570Z,77.16
2022-08-01T22:38:36.628Z,77.39
2022-08-01T22:41:07.431Z,77.83
2022-08-01T22:43:43.026Z,78.02
2022-08-01T22:46:25.197Z,77.61
2022-08-01T22:48:57.845Z,77.32
2022-08-01T22:51:35.461Z,77.38
2022-08-01T22:54:09.928Z,78.28
2022-08-01T22:56:42.935Z,79.95
2022-08-01T22:59:15.925Z,80.86
2022-08-01T23:01:47.873Z,80.06
2022-08-01T23:04:27.654Z,79.91
2022-08-01T23:07:06.270Z,80.16
2022-08-01T23:09:53.398Z,80.20
2022-08-01T23:12:26.277Z,80.28
2022-08-01T23:14:56.521Z,79.51
2022-08-01T23:17:28.851Z,79.30
2022-08-01T23:19:59.626Z,79.73
2022-08-01T23:22:31.623Z,79.49
2022-08-01T23:25:06.198Z,80.23
2022-08-01T23:27:51.319Z,80.64
2022-08-01T23:30:30.837Z,80.13
2022-08-01T23:32:59.943Z,79.61
2022-08-01T23:35:29.458Z,80.20
2022-08-01T23:38:02.755Z,80.46
2022-08-01T23:40:33.607Z,80.53
2022-08-01T23:43:02.767Z,80.41
2022-08-01T23:46:02.355Z,80.68
2022-08-01T23:48:20.197Z,81.44
2022-08-01T23:50:48.517Z,81.65
2022-08-01T23:53:16.788Z,80.75
2022-08-01T23:55:46.731Z,80.36
2022-08-01T23:58:15.055Z,80.25
